sensor_id;sensor_type;location;lat;lon;timestamp;temperature;humidity
80676;SHT30;70041;46.088;18.268;2023-12-28T00:01:13;4.57;84.95
80676;SHT30;70041;46.088;18.268;2023-12-28T00:03:38;4.54;85.22
80676;SHT30;70041;46.088;18.268;2023-12-28T00:06:06;4.54;85.50
80676;SHT30;70041;46.088;18.268;2023-12-28T00:08:31;4.56;86.03
80676;SHT30;70041;46.088;18.268;2023-12-28T00:10:57;4.56;86.13
80676;SHT30;70041;46.088;18.268;2023-12-28T00:13:23;4.66;86.11
80676;SHT30;70041;46.088;18.268;2023-12-28T00:15:48;4.59;85.69
80676;SHT30;70041;46.088;18.268;2023-12-28T00:18:14;4.63;85.68
80676;SHT30;70041;46.088;18.268;2023-12-28T00:20:39;4.67;85.69
80676;SHT30;70041;46.088;18.268;2023-12-28T00:23:04;4.77;83.77
80676;SHT30;70041;46.088;18.268;2023-12-28T00:25:31;4.69;83.92
80676;SHT30;70041;46.088;18.268;2023-12-28T00:27:57;4.54;85.09
80676;SHT30;70041;46.088;18.268;2023-12-28T00:30:22;4.53;85.22
80676;SHT30;70041;46.088;18.268;2023-12-28T00:32:47;4.56;85.46
80676;SHT30;70041;46.088;18.268;2023-12-28T00:35:13;4.57;85.81
80676;SHT30;70041;46.088;18.268;2023-12-28T00:37:39;4.54;86.10
80676;SHT30;70041;46.088;18.268;2023-12-28T00:40:05;4.49;86.16
80676;SHT30;70041;46.088;18.268;2023-12-28T00:42:30;4.48;86.26
80676;SHT30;70041;46.088;18.268;2023-12-28T00:44:56;4.46;86.09
80676;SHT30;70041;46.088;18.268;2023-12-28T00:47:21;4.40;86.46
80676;SHT30;70041;46.088;18.268;2023-12-28T00:49:47;4.42;85.92
80676;SHT30;70041;46.088;18.268;2023-12-28T00:52:13;4.43;85.20
80676;SHT30;70041;46.088;18.268;2023-12-28T00:54:38;4.35;85.42
80676;SHT30;70041;46.088;18.268;2023-12-28T00:57:04;4.31;86.07
80676;SHT30;70041;46.088;18.268;2023-12-28T00:59:29;4.26;85.85
80676;SHT30;70041;46.088;18.268;2023-12-28T01:01:56;4.22;85.85
80676;SHT30;70041;46.088;18.268;2023-12-28T01:04:21;4.31;85.95
80676;SHT30;70041;46.088;18.268;2023-12-28T01:06:50;4.23;85.75
80676;SHT30;70041;46.088;18.268;2023-12-28T01:09:15;4.26;86.30
80676;SHT30;70041;46.088;18.268;2023-12-28T01:11:41;4.12;86.30
80676;SHT30;70041;46.088;18.268;2023-12-28T01:14:06;4.21;86.47
80676;SHT30;70041;46.088;18.268;2023-12-28T01:16:32;4.15;86.52
80676;SHT30;70041;46.088;18.268;2023-12-28T01:18:57;4.08;86.83
80676;SHT30;70041;46.088;18.268;2023-12-28T01:21:23;4.05;87.08
80676;SHT30;70041;46.088;18.268;2023-12-28T01:23:50;4.05;86.88
80676;SHT30;70041;46.088;18.268;2023-12-28T01:26:16;4.03;87.23
80676;SHT30;70041;46.088;18.268;2023-12-28T01:28:42;4.12;86.71
80676;SHT30;70041;46.088;18.268;2023-12-28T01:31:08;4.13;86.77
80676;SHT30;70041;46.088;18.268;2023-12-28T01:33:33;4.15;86.68
80676;SHT30;70041;46.088;18.268;2023-12-28T01:36:01;4.09;86.75
80676;SHT30;70041;46.088;18.268;2023-12-28T01:38:26;4.08;86.88
80676;SHT30;70041;46.088;18.268;2023-12-28T01:40:51;4.03;86.97
80676;SHT30;70041;46.088;18.268;2023-12-28T01:43:17;4.05;87.14
80676;SHT30;70041;46.088;18.268;2023-12-28T01:45:42;4.06;86.83
80676;SHT30;70041;46.088;18.268;2023-12-28T01:48:08;4.08;87.02
80676;SHT30;70041;46.088;18.268;2023-12-28T01:50:34;4.09;86.51
80676;SHT30;70041;46.088;18.268;2023-12-28T01:53:00;4.06;87.03
80676;SHT30;70041;46.088;18.268;2023-12-28T01:55:27;4.01;87.01
80676;SHT30;70041;46.088;18.268;2023-12-28T01:57:54;3.98;87.17
80676;SHT30;70041;46.088;18.268;2023-12-28T02:00:21;4.01;86.08
80676;SHT30;70041;46.088;18.268;2023-12-28T02:02:47;3.99;86.38
80676;SHT30;70041;46.088;18.268;2023-12-28T02:05:14;3.94;86.56
80676;SHT30;70041;46.088;18.268;2023-12-28T02:07:40;3.84;86.96
80676;SHT30;70041;46.088;18.268;2023-12-28T02:10:06;3.73;87.15
80676;SHT30;70041;46.088;18.268;2023-12-28T02:12:32;3.81;87.67
80676;SHT30;70041;46.088;18.268;2023-12-28T02:14:58;3.80;87.40
80676;SHT30;70041;46.088;18.268;2023-12-28T02:17:30;3.74;87.65
80676;SHT30;70041;46.088;18.268;2023-12-28T02:19:57;3.71;87.39
80676;SHT30;70041;46.088;18.268;2023-12-28T02:22:27;3.68;87.32
80676;SHT30;70041;46.088;18.268;2023-12-28T02:27:24;3.66;87.88
80676;SHT30;70041;46.088;18.268;2023-12-28T02:29:50;3.61;87.84
80676;SHT30;70041;46.088;18.268;2023-12-28T02:32:16;3.64;88.02
80676;SHT30;70041;46.088;18.268;2023-12-28T02:34:46;3.54;88.09
80676;SHT30;70041;46.088;18.268;2023-12-28T02:37:15;3.58;86.83
80676;SHT30;70041;46.088;18.268;2023-12-28T02:39:42;3.50;87.22
80676;SHT30;70041;46.088;18.268;2023-12-28T02:42:09;3.50;87.93
80676;SHT30;70041;46.088;18.268;2023-12-28T02:44:34;3.47;88.16
80676;SHT30;70041;46.088;18.268;2023-12-28T02:47:00;3.51;88.05
80676;SHT30;70041;46.088;18.268;2023-12-28T02:49:25;3.58;87.52
80676;SHT30;70041;46.088;18.268;2023-12-28T02:51:51;3.57;85.50
80676;SHT30;70041;46.088;18.268;2023-12-28T02:54:17;3.51;86.19
80676;SHT30;70041;46.088;18.268;2023-12-28T02:56:42;3.50;86.81
80676;SHT30;70041;46.088;18.268;2023-12-28T02:59:07;3.47;87.37
80676;SHT30;70041;46.088;18.268;2023-12-28T03:01:33;3.43;87.72
80676;SHT30;70041;46.088;18.268;2023-12-28T03:03:58;3.43;87.53
80676;SHT30;70041;46.088;18.268;2023-12-28T03:06:23;3.31;87.39
80676;SHT30;70041;46.088;18.268;2023-12-28T03:08:49;3.31;87.50
80676;SHT30;70041;46.088;18.268;2023-12-28T03:11:14;3.36;86.56
80676;SHT30;70041;46.088;18.268;2023-12-28T03:13:40;3.24;87.35
80676;SHT30;70041;46.088;18.268;2023-12-28T03:16:05;3.16;87.36
80676;SHT30;70041;46.088;18.268;2023-12-28T03:18:31;3.05;87.43
80676;SHT30;70041;46.088;18.268;2023-12-28T03:20:56;3.07;87.23
80676;SHT30;70041;46.088;18.268;2023-12-28T03:23:22;3.00;87.60
80676;SHT30;70041;46.088;18.268;2023-12-28T03:25:47;2.97;88.25
80676;SHT30;70041;46.088;18.268;2023-12-28T03:28:13;2.97;87.99
80676;SHT30;70041;46.088;18.268;2023-12-28T03:30:39;3.02;88.14
80676;SHT30;70041;46.088;18.268;2023-12-28T03:33:04;2.99;88.39
80676;SHT30;70041;46.088;18.268;2023-12-28T03:35:30;3.03;87.83
80676;SHT30;70041;46.088;18.268;2023-12-28T03:37:55;2.99;88.33
80676;SHT30;70041;46.088;18.268;2023-12-28T03:40:20;2.91;88.19
80676;SHT30;70041;46.088;18.268;2023-12-28T03:42:46;2.93;88.85
80676;SHT30;70041;46.088;18.268;2023-12-28T03:45:11;2.91;86.49
80676;SHT30;70041;46.088;18.268;2023-12-28T03:47:37;2.88;86.63
80676;SHT30;70041;46.088;18.268;2023-12-28T03:50:03;2.89;87.95
80676;SHT30;70041;46.088;18.268;2023-12-28T03:52:28;2.92;88.01
80676;SHT30;70041;46.088;18.268;2023-12-28T03:54:57;2.84;87.48
80676;SHT30;70041;46.088;18.268;2023-12-28T03:57:22;2.78;88.07
80676;SHT30;70041;46.088;18.268;2023-12-28T03:59:48;2.72;88.65
80676;SHT30;70041;46.088;18.268;2023-12-28T04:02:13;2.82;88.86
80676;SHT30;70041;46.088;18.268;2023-12-28T04:04:39;2.84;88.71
80676;SHT30;70041;46.088;18.268;2023-12-28T04:07:05;2.84;88.33
80676;SHT30;70041;46.088;18.268;2023-12-28T04:09:33;2.84;87.69
80676;SHT30;70041;46.088;18.268;2023-12-28T04:11:58;2.69;87.92
80676;SHT30;70041;46.088;18.268;2023-12-28T04:14:23;2.66;87.78
80676;SHT30;70041;46.088;18.268;2023-12-28T04:16:49;2.72;88.23
80676;SHT30;70041;46.088;18.268;2023-12-28T04:19:14;2.69;87.89
80676;SHT30;70041;46.088;18.268;2023-12-28T04:21:43;2.62;88.05
80676;SHT30;70041;46.088;18.268;2023-12-28T04:24:09;2.62;88.46
80676;SHT30;70041;46.088;18.268;2023-12-28T04:26:35;2.68;88.86
80676;SHT30;70041;46.088;18.268;2023-12-28T04:29:00;2.65;88.75
80676;SHT30;70041;46.088;18.268;2023-12-28T04:31:25;2.71;89.23
80676;SHT30;70041;46.088;18.268;2023-12-28T04:33:51;2.66;88.58
80676;SHT30;70041;46.088;18.268;2023-12-28T04:36:16;2.66;88.83
80676;SHT30;70041;46.088;18.268;2023-12-28T04:38:42;2.64;88.40
80676;SHT30;70041;46.088;18.268;2023-12-28T04:41:09;2.68;88.45
80676;SHT30;70041;46.088;18.268;2023-12-28T04:43:34;2.84;87.69
80676;SHT30;70041;46.088;18.268;2023-12-28T04:46:04;2.42;86.95
80676;SHT30;70041;46.088;18.268;2023-12-28T04:48:29;2.55;90.09
80676;SHT30;70041;46.088;18.268;2023-12-28T04:50:55;2.71;90.29
80676;SHT30;70041;46.088;18.268;2023-12-28T04:53:20;2.85;90.27
80676;SHT30;70041;46.088;18.268;2023-12-28T04:55:46;2.81;89.33
80676;SHT30;70041;46.088;18.268;2023-12-28T04:58:11;2.79;88.94
80676;SHT30;70041;46.088;18.268;2023-12-28T05:00:37;2.79;89.23
80676;SHT30;70041;46.088;18.268;2023-12-28T05:03:03;2.74;89.64
80676;SHT30;70041;46.088;18.268;2023-12-28T05:05:28;2.78;89.95
80676;SHT30;70041;46.088;18.268;2023-12-28T05:07:54;2.91;90.00
80676;SHT30;70041;46.088;18.268;2023-12-28T05:10:19;2.89;90.05
80676;SHT30;70041;46.088;18.268;2023-12-28T05:12:45;2.86;89.82
80676;SHT30;70041;46.088;18.268;2023-12-28T05:15:10;3.10;89.29
80676;SHT30;70041;46.088;18.268;2023-12-28T05:17:35;2.89;85.95
80676;SHT30;70041;46.088;18.268;2023-12-28T05:20:01;2.74;87.04
80676;SHT30;70041;46.088;18.268;2023-12-28T05:22:26;2.45;87.44
80676;SHT30;70041;46.088;18.268;2023-12-28T05:24:52;2.42;88.40
80676;SHT30;70041;46.088;18.268;2023-12-28T05:27:17;2.40;88.90
80676;SHT30;70041;46.088;18.268;2023-12-28T05:29:43;2.44;90.23
80676;SHT30;70041;46.088;18.268;2023-12-28T05:32:08;2.65;90.60
80676;SHT30;70041;46.088;18.268;2023-12-28T05:34:33;2.78;90.02
80676;SHT30;70041;46.088;18.268;2023-12-28T05:36:59;2.84;89.98
80676;SHT30;70041;46.088;18.268;2023-12-28T05:39:24;2.99;90.13
80676;SHT30;70041;46.088;18.268;2023-12-28T05:41:50;2.92;89.76
80676;SHT30;70041;46.088;18.268;2023-12-28T05:44:16;3.03;89.68
80676;SHT30;70041;46.088;18.268;2023-12-28T05:46:42;3.16;88.68
80676;SHT30;70041;46.088;18.268;2023-12-28T05:49:07;3.09;88.71
80676;SHT30;70041;46.088;18.268;2023-12-28T05:51:41;3.03;88.86
80676;SHT30;70041;46.088;18.268;2023-12-28T05:54:07;2.99;89.21
80676;SHT30;70041;46.088;18.268;2023-12-28T05:56:33;3.02;89.66
80676;SHT30;70041;46.088;18.268;2023-12-28T05:58:58;3.05;89.79
80676;SHT30;70041;46.088;18.268;2023-12-28T06:01:24;3.19;89.89
80676;SHT30;70041;46.088;18.268;2023-12-28T06:03:49;3.30;89.61
80676;SHT30;70041;46.088;18.268;2023-12-28T06:06:17;3.24;88.05
80676;SHT30;70041;46.088;18.268;2023-12-28T06:08:43;3.16;87.97
80676;SHT30;70041;46.088;18.268;2023-12-28T06:11:08;3.10;87.98
80676;SHT30;70041;46.088;18.268;2023-12-28T06:13:34;2.96;87.88
80676;SHT30;70041;46.088;18.268;2023-12-28T06:15:59;2.89;88.69
80676;SHT30;70041;46.088;18.268;2023-12-28T06:18:25;3.13;90.27
80676;SHT30;70041;46.088;18.268;2023-12-28T06:20:50;3.22;90.10
80676;SHT30;70041;46.088;18.268;2023-12-28T06:23:15;3.26;89.91
80676;SHT30;70041;46.088;18.268;2023-12-28T06:25:41;3.15;86.88
80676;SHT30;70041;46.088;18.268;2023-12-28T06:28:06;3.05;87.29
80676;SHT30;70041;46.088;18.268;2023-12-28T06:30:32;2.99;88.63
80676;SHT30;70041;46.088;18.268;2023-12-28T06:32:57;3.20;90.17
80676;SHT30;70041;46.088;18.268;2023-12-28T06:35:23;3.36;90.16
80676;SHT30;70041;46.088;18.268;2023-12-28T06:37:48;3.40;87.69
80676;SHT30;70041;46.088;18.268;2023-12-28T06:40:14;3.34;87.95
80676;SHT30;70041;46.088;18.268;2023-12-28T06:42:39;3.27;87.45
80676;SHT30;70041;46.088;18.268;2023-12-28T06:45:06;3.19;87.84
80676;SHT30;70041;46.088;18.268;2023-12-28T06:47:32;3.23;88.22
80676;SHT30;70041;46.088;18.268;2023-12-28T06:49:57;3.19;89.39
80676;SHT30;70041;46.088;18.268;2023-12-28T06:52:22;3.29;88.98
80676;SHT30;70041;46.088;18.268;2023-12-28T06:54:51;3.31;88.93
80676;SHT30;70041;46.088;18.268;2023-12-28T06:57:16;3.38;89.19
80676;SHT30;70041;46.088;18.268;2023-12-28T06:59:41;3.44;89.47
80676;SHT30;70041;46.088;18.268;2023-12-28T07:02:07;3.56;89.21
80676;SHT30;70041;46.088;18.268;2023-12-28T07:04:32;3.48;87.43
80676;SHT30;70041;46.088;18.268;2023-12-28T07:06:58;3.57;88.22
80676;SHT30;70041;46.088;18.268;2023-12-28T07:09:23;3.58;88.50
80676;SHT30;70041;46.088;18.268;2023-12-28T07:11:49;3.66;88.77
80676;SHT30;70041;46.088;18.268;2023-12-28T07:14:14;3.73;88.93
80676;SHT30;70041;46.088;18.268;2023-12-28T07:16:39;3.70;89.07
80676;SHT30;70041;46.088;18.268;2023-12-28T07:19:05;3.84;88.77
80676;SHT30;70041;46.088;18.268;2023-12-28T07:21:30;4.12;89.01
80676;SHT30;70041;46.088;18.268;2023-12-28T07:23:56;4.12;88.54
80676;SHT30;70041;46.088;18.268;2023-12-28T07:26:21;4.18;88.57
80676;SHT30;70041;46.088;18.268;2023-12-28T07:28:46;4.33;89.11
80676;SHT30;70041;46.088;18.268;2023-12-28T07:31:26;4.56;88.25
80676;SHT30;70041;46.088;18.268;2023-12-28T07:33:52;4.57;87.51
80676;SHT30;70041;46.088;18.268;2023-12-28T07:36:17;4.64;87.90
80676;SHT30;70041;46.088;18.268;2023-12-28T07:38:43;4.69;88.04
80676;SHT30;70041;46.088;18.268;2023-12-28T07:41:09;4.84;87.85
80676;SHT30;70041;46.088;18.268;2023-12-28T07:43:35;4.97;87.83
80676;SHT30;70041;46.088;18.268;2023-12-28T07:46:01;5.07;87.80
80676;SHT30;70041;46.088;18.268;2023-12-28T07:48:27;5.25;87.37
80676;SHT30;70041;46.088;18.268;2023-12-28T07:50:52;5.48;86.43
80676;SHT30;70041;46.088;18.268;2023-12-28T07:53:17;5.51;86.29
80676;SHT30;70041;46.088;18.268;2023-12-28T07:55:43;5.55;86.39
80676;SHT30;70041;46.088;18.268;2023-12-28T07:58:08;5.66;86.00
80676;SHT30;70041;46.088;18.268;2023-12-28T08:00:33;5.89;85.05
80676;SHT30;70041;46.088;18.268;2023-12-28T08:02:59;5.97;85.63
80676;SHT30;70041;46.088;18.268;2023-12-28T08:05:24;6.07;85.32
80676;SHT30;70041;46.088;18.268;2023-12-28T08:07:50;6.17;85.55
80676;SHT30;70041;46.088;18.268;2023-12-28T08:10:15;6.27;84.43
80676;SHT30;70041;46.088;18.268;2023-12-28T08:12:40;6.38;85.22
80676;SHT30;70041;46.088;18.268;2023-12-28T08:15:08;6.52;84.98
80676;SHT30;70041;46.088;18.268;2023-12-28T08:17:33;6.65;84.69
80676;SHT30;70041;46.088;18.268;2023-12-28T08:19:59;6.74;83.89
80676;SHT30;70041;46.088;18.268;2023-12-28T08:22:24;6.87;83.60
80676;SHT30;70041;46.088;18.268;2023-12-28T08:24:50;6.87;83.80
80676;SHT30;70041;46.088;18.268;2023-12-28T08:27:15;6.95;82.77
80676;SHT30;70041;46.088;18.268;2023-12-28T08:29:41;7.22;79.76
80676;SHT30;70041;46.088;18.268;2023-12-28T08:32:09;7.36;79.78
80676;SHT30;70041;46.088;18.268;2023-12-28T08:34:35;7.56;78.85
80676;SHT30;70041;46.088;18.268;2023-12-28T08:37:03;7.66;78.87
80676;SHT30;70041;46.088;18.268;2023-12-28T08:39:29;7.78;77.66
80676;SHT30;70041;46.088;18.268;2023-12-28T08:41:55;7.74;78.30
80676;SHT30;70041;46.088;18.268;2023-12-28T08:44:21;7.98;77.67
80676;SHT30;70041;46.088;18.268;2023-12-28T08:46:46;8.08;76.90
80676;SHT30;70041;46.088;18.268;2023-12-28T08:49:12;7.99;77.20
80676;SHT30;70041;46.088;18.268;2023-12-28T08:51:37;8.20;76.71
80676;SHT30;70041;46.088;18.268;2023-12-28T08:54:03;8.34;76.39
80676;SHT30;70041;46.088;18.268;2023-12-28T08:56:28;8.44;76.22
80676;SHT30;70041;46.088;18.268;2023-12-28T08:58:55;8.52;75.73
80676;SHT30;70041;46.088;18.268;2023-12-28T09:01:22;8.53;75.33
80676;SHT30;70041;46.088;18.268;2023-12-28T09:03:48;8.52;75.53
80676;SHT30;70041;46.088;18.268;2023-12-28T09:06:14;8.56;76.00
80676;SHT30;70041;46.088;18.268;2023-12-28T09:08:43;8.69;75.54
80676;SHT30;70041;46.088;18.268;2023-12-28T09:11:13;8.81;74.67
80676;SHT30;70041;46.088;18.268;2023-12-28T09:13:39;8.84;75.05
80676;SHT30;70041;46.088;18.268;2023-12-28T09:16:06;8.96;74.31
80676;SHT30;70041;46.088;18.268;2023-12-28T09:18:32;9.01;74.38
80676;SHT30;70041;46.088;18.268;2023-12-28T09:20:57;9.04;74.49
80676;SHT30;70041;46.088;18.268;2023-12-28T09:23:22;9.10;73.86
80676;SHT30;70041;46.088;18.268;2023-12-28T09:25:48;9.10;74.34
80676;SHT30;70041;46.088;18.268;2023-12-28T09:28:14;9.14;74.22
80676;SHT30;70041;46.088;18.268;2023-12-28T09:30:40;9.35;72.69
80676;SHT30;70041;46.088;18.268;2023-12-28T09:33:05;9.41;73.17
80676;SHT30;70041;46.088;18.268;2023-12-28T09:35:31;9.45;72.51
80676;SHT30;70041;46.088;18.268;2023-12-28T09:37:56;9.57;72.66
80676;SHT30;70041;46.088;18.268;2023-12-28T09:40:22;9.65;72.09
80676;SHT30;70041;46.088;18.268;2023-12-28T09:42:53;9.67;72.44
80676;SHT30;70041;46.088;18.268;2023-12-28T09:45:21;9.69;72.91
80676;SHT30;70041;46.088;18.268;2023-12-28T09:47:47;9.85;72.36
80676;SHT30;70041;46.088;18.268;2023-12-28T09:50:17;10.02;71.84
80676;SHT30;70041;46.088;18.268;2023-12-28T09:52:43;10.24;70.86
80676;SHT30;70041;46.088;18.268;2023-12-28T09:55:08;10.41;70.07
80676;SHT30;70041;46.088;18.268;2023-12-28T09:57:35;10.57;68.98
80676;SHT30;70041;46.088;18.268;2023-12-28T10:00:01;10.64;68.66
80676;SHT30;70041;46.088;18.268;2023-12-28T10:02:28;10.51;69.81
80676;SHT30;70041;46.088;18.268;2023-12-28T10:04:54;10.49;69.46
80676;SHT30;70041;46.088;18.268;2023-12-28T10:07:19;10.53;69.17
80676;SHT30;70041;46.088;18.268;2023-12-28T10:09:45;10.57;68.75
80676;SHT30;70041;46.088;18.268;2023-12-28T10:12:10;10.57;69.26
80676;SHT30;70041;46.088;18.268;2023-12-28T10:14:36;10.61;68.37
80676;SHT30;70041;46.088;18.268;2023-12-28T10:17:01;10.65;69.09
80676;SHT30;70041;46.088;18.268;2023-12-28T10:19:27;10.73;68.72
80676;SHT30;70041;46.088;18.268;2023-12-28T10:21:53;10.77;68.20
80676;SHT30;70041;46.088;18.268;2023-12-28T10:24:18;10.80;68.85
80676;SHT30;70041;46.088;18.268;2023-12-28T10:26:43;10.95;68.35
80676;SHT30;70041;46.088;18.268;2023-12-28T10:29:09;11.01;67.96
80676;SHT30;70041;46.088;18.268;2023-12-28T10:31:34;11.02;68.39
80676;SHT30;70041;46.088;18.268;2023-12-28T10:34:00;11.16;67.77
80676;SHT30;70041;46.088;18.268;2023-12-28T10:36:27;11.34;67.66
80676;SHT30;70041;46.088;18.268;2023-12-28T10:38:54;11.45;66.82
80676;SHT30;70041;46.088;18.268;2023-12-28T10:41:19;11.47;66.54
80676;SHT30;70041;46.088;18.268;2023-12-28T10:44:00;11.55;66.11
80676;SHT30;70041;46.088;18.268;2023-12-28T10:46:30;11.56;66.38
80676;SHT30;70041;46.088;18.268;2023-12-28T10:49:05;11.56;66.69
80676;SHT30;70041;46.088;18.268;2023-12-28T10:51:34;11.58;65.99
80676;SHT30;70041;46.088;18.268;2023-12-28T10:57:17;11.69;65.51
80676;SHT30;70041;46.088;18.268;2023-12-28T11:00:09;11.75;65.21
80676;SHT30;70041;46.088;18.268;2023-12-28T11:02:44;11.61;65.26
80676;SHT30;70041;46.088;18.268;2023-12-28T11:05:12;11.55;65.99
80676;SHT30;70041;46.088;18.268;2023-12-28T11:07:38;11.59;65.57
80676;SHT30;70041;46.088;18.268;2023-12-28T11:10:06;11.66;65.20
80676;SHT30;70041;46.088;18.268;2023-12-28T11:12:32;11.77;64.98
80676;SHT30;70041;46.088;18.268;2023-12-28T11:14:59;11.96;64.65
80676;SHT30;70041;46.088;18.268;2023-12-28T11:17:25;12.03;63.89
80676;SHT30;70041;46.088;18.268;2023-12-28T11:19:52;11.98;63.99
80676;SHT30;70041;46.088;18.268;2023-12-28T11:22:19;12.00;63.87
80676;SHT30;70041;46.088;18.268;2023-12-28T11:24:45;12.01;63.99
80676;SHT30;70041;46.088;18.268;2023-12-28T11:27:10;12.14;64.14
80676;SHT30;70041;46.088;18.268;2023-12-28T11:29:38;12.17;64.63
80676;SHT30;70041;46.088;18.268;2023-12-28T11:32:03;12.21;63.98
80676;SHT30;70041;46.088;18.268;2023-12-28T11:34:30;12.28;64.52
80676;SHT30;70041;46.088;18.268;2023-12-28T11:36:59;12.26;64.61
80676;SHT30;70041;46.088;18.268;2023-12-28T11:39:33;12.34;64.72
80676;SHT30;70041;46.088;18.268;2023-12-28T11:42:02;12.31;64.52
80676;SHT30;70041;46.088;18.268;2023-12-28T11:44:31;12.44;63.96
80676;SHT30;70041;46.088;18.268;2023-12-28T11:47:11;12.52;64.08
80676;SHT30;70041;46.088;18.268;2023-12-28T11:49:37;12.67;63.95
80676;SHT30;70041;46.088;18.268;2023-12-28T11:52:02;12.74;63.82
80676;SHT30;70041;46.088;18.268;2023-12-28T11:54:30;12.75;63.98
80676;SHT30;70041;46.088;18.268;2023-12-28T11:56:55;12.95;63.25
80676;SHT30;70041;46.088;18.268;2023-12-28T11:59:21;13.00;63.13
80676;SHT30;70041;46.088;18.268;2023-12-28T12:01:50;13.09;62.51
80676;SHT30;70041;46.088;18.268;2023-12-28T12:04:17;13.42;61.77
80676;SHT30;70041;46.088;18.268;2023-12-28T12:06:42;13.50;61.67
80676;SHT30;70041;46.088;18.268;2023-12-28T12:09:11;13.43;61.57
80676;SHT30;70041;46.088;18.268;2023-12-28T12:11:36;13.47;61.64
80676;SHT30;70041;46.088;18.268;2023-12-28T12:14:03;13.42;61.57
80676;SHT30;70041;46.088;18.268;2023-12-28T12:16:31;13.47;61.63
80676;SHT30;70041;46.088;18.268;2023-12-28T12:18:57;13.60;61.28
80676;SHT30;70041;46.088;18.268;2023-12-28T12:21:23;13.97;59.93
80676;SHT30;70041;46.088;18.268;2023-12-28T12:23:49;13.95;59.79
80676;SHT30;70041;46.088;18.268;2023-12-28T12:26:17;13.98;59.70
80676;SHT30;70041;46.088;18.268;2023-12-28T12:28:43;13.64;61.26
80676;SHT30;70041;46.088;18.268;2023-12-28T12:31:10;13.53;59.42
80676;SHT30;70041;46.088;18.268;2023-12-28T12:33:36;13.47;59.84
80676;SHT30;70041;46.088;18.268;2023-12-28T12:36:01;13.36;59.59
80676;SHT30;70041;46.088;18.268;2023-12-28T12:38:27;13.36;59.93
80676;SHT30;70041;46.088;18.268;2023-12-28T12:40:53;13.51;59.68
80676;SHT30;70041;46.088;18.268;2023-12-28T12:43:18;13.61;59.30
80676;SHT30;70041;46.088;18.268;2023-12-28T12:45:47;13.84;58.82
80676;SHT30;70041;46.088;18.268;2023-12-28T12:48:13;13.80;58.88
80676;SHT30;70041;46.088;18.268;2023-12-28T12:50:38;13.78;58.62
80676;SHT30;70041;46.088;18.268;2023-12-28T12:53:08;13.59;58.84
80676;SHT30;70041;46.088;18.268;2023-12-28T12:55:33;13.49;59.15
80676;SHT30;70041;46.088;18.268;2023-12-28T12:57:58;13.59;59.01
80676;SHT30;70041;46.088;18.268;2023-12-28T13:00:24;13.77;58.17
80676;SHT30;70041;46.088;18.268;2023-12-28T13:02:50;13.94;57.77
80676;SHT30;70041;46.088;18.268;2023-12-28T13:05:20;14.04;57.10
80676;SHT30;70041;46.088;18.268;2023-12-28T13:07:45;13.92;57.83
80676;SHT30;70041;46.088;18.268;2023-12-28T13:10:11;13.69;58.83
80676;SHT30;70041;46.088;18.268;2023-12-28T13:12:36;13.61;59.04
80676;SHT30;70041;46.088;18.268;2023-12-28T13:15:02;13.44;58.95
80676;SHT30;70041;46.088;18.268;2023-12-28T13:17:28;13.20;59.89
80676;SHT30;70041;46.088;18.268;2023-12-28T13:19:53;13.16;59.87
80676;SHT30;70041;46.088;18.268;2023-12-28T13:22:19;13.15;60.26
80676;SHT30;70041;46.088;18.268;2023-12-28T13:24:44;13.09;60.49
80676;SHT30;70041;46.088;18.268;2023-12-28T13:27:10;13.09;60.63
80676;SHT30;70041;46.088;18.268;2023-12-28T13:29:36;13.02;60.94
80676;SHT30;70041;46.088;18.268;2023-12-28T13:32:01;12.95;61.76
80676;SHT30;70041;46.088;18.268;2023-12-28T13:34:27;12.99;61.57
80676;SHT30;70041;46.088;18.268;2023-12-28T13:36:53;12.99;61.45
80676;SHT30;70041;46.088;18.268;2023-12-28T13:39:19;12.95;61.28
80676;SHT30;70041;46.088;18.268;2023-12-28T13:41:45;12.96;61.40
80676;SHT30;70041;46.088;18.268;2023-12-28T13:44:10;13.10;61.38
80676;SHT30;70041;46.088;18.268;2023-12-28T13:46:38;13.27;60.70
80676;SHT30;70041;46.088;18.268;2023-12-28T13:49:03;13.40;60.56
80676;SHT30;70041;46.088;18.268;2023-12-28T13:51:33;13.27;60.88
80676;SHT30;70041;46.088;18.268;2023-12-28T13:53:58;13.13;61.26
80676;SHT30;70041;46.088;18.268;2023-12-28T13:56:24;13.08;61.49
80676;SHT30;70041;46.088;18.268;2023-12-28T13:58:49;13.03;61.79
80676;SHT30;70041;46.088;18.268;2023-12-28T14:01:15;13.15;61.62
80676;SHT30;70041;46.088;18.268;2023-12-28T14:03:40;13.12;61.75
80676;SHT30;70041;46.088;18.268;2023-12-28T14:06:05;12.93;62.59
80676;SHT30;70041;46.088;18.268;2023-12-28T14:08:31;12.85;62.73
80676;SHT30;70041;46.088;18.268;2023-12-28T14:10:57;12.81;63.03
80676;SHT30;70041;46.088;18.268;2023-12-28T14:13:23;12.71;63.50
80676;SHT30;70041;46.088;18.268;2023-12-28T14:15:48;12.62;63.84
80676;SHT30;70041;46.088;18.268;2023-12-28T14:18:14;12.55;64.23
80676;SHT30;70041;46.088;18.268;2023-12-28T14:20:39;12.44;64.57
80676;SHT30;70041;46.088;18.268;2023-12-28T14:23:05;12.18;65.87
80676;SHT30;70041;46.088;18.268;2023-12-28T14:25:30;12.17;65.55
80676;SHT30;70041;46.088;18.268;2023-12-28T14:27:56;12.20;65.35
80676;SHT30;70041;46.088;18.268;2023-12-28T14:30:22;12.17;65.68
80676;SHT30;70041;46.088;18.268;2023-12-28T14:32:48;12.03;65.96
80676;SHT30;70041;46.088;18.268;2023-12-28T14:35:13;12.03;66.08
80676;SHT30;70041;46.088;18.268;2023-12-28T14:37:42;11.93;66.37
80676;SHT30;70041;46.088;18.268;2023-12-28T14:40:07;11.83;66.54
80676;SHT30;70041;46.088;18.268;2023-12-28T14:42:35;11.73;67.09
80676;SHT30;70041;46.088;18.268;2023-12-28T14:45:00;11.63;67.55
80676;SHT30;70041;46.088;18.268;2023-12-28T14:47:29;11.58;68.11
80676;SHT30;70041;46.088;18.268;2023-12-28T14:49:54;11.40;68.54
80676;SHT30;70041;46.088;18.268;2023-12-28T14:52:23;11.19;69.32
80676;SHT30;70041;46.088;18.268;2023-12-28T14:54:49;11.16;69.56
80676;SHT30;70041;46.088;18.268;2023-12-28T14:57:16;11.14;69.71
80676;SHT30;70041;46.088;18.268;2023-12-28T14:59:41;11.05;70.54
80676;SHT30;70041;46.088;18.268;2023-12-28T15:02:07;10.83;71.64
80676;SHT30;70041;46.088;18.268;2023-12-28T15:04:33;10.71;71.88
80676;SHT30;70041;46.088;18.268;2023-12-28T15:06:59;10.51;72.61
80676;SHT30;70041;46.088;18.268;2023-12-28T15:09:24;10.36;73.06
80676;SHT30;70041;46.088;18.268;2023-12-28T15:11:50;10.24;73.29
80676;SHT30;70041;46.088;18.268;2023-12-28T15:14:16;10.10;74.14
80676;SHT30;70041;46.088;18.268;2023-12-28T15:16:42;10.12;74.27
80676;SHT30;70041;46.088;18.268;2023-12-28T15:19:07;9.92;74.66
80676;SHT30;70041;46.088;18.268;2023-12-28T15:21:33;9.81;75.20
80676;SHT30;70041;46.088;18.268;2023-12-28T15:24:00;9.81;75.04